sensor_id;sensor_type;location;lat;lon;timestamp;temperature;humidity
12111;DHT22;6119;52.372;8.990;2023-08-08T00:01:25;14.10;99.90
12111;DHT22;6119;52.372;8.990;2023-08-08T00:04:12;14.10;99.90
12111;DHT22;6119;52.372;8.990;2023-08-08T00:06:59;14.10;99.90
12111;DHT22;6119;52.372;8.990;2023-08-08T00:09:45;14.00;99.90
12111;DHT22;6119;52.372;8.990;2023-08-08T00:12:32;14.00;99.90
12111;DHT22;6119;52.372;8.990;2023-08-08T00:15:19;14.00;99.90
12111;DHT22;6119;52.372;8.990;2023-08-08T00:18:07;14.10;99.90
12111;DHT22;6119;52.372;8.990;2023-08-08T00:20:55;14.00;99.90
12111;DHT22;6119;52.372;8.990;2023-08-08T00:23:41;14.00;99.90
12111;DHT22;6119;52.372;8.990;2023-08-08T00:26:28;14.10;99.90
12111;DHT22;6119;52.372;8.990;2023-08-08T00:29:15;14.00;99.90
12111;DHT22;6119;52.372;8.990;2023-08-08T00:32:01;14.00;99.90
12111;DHT22;6119;52.372;8.990;2023-08-08T00:34:50;14.00;99.90
12111;DHT22;6119;52.372;8.990;2023-08-08T00:37:36;14.00;99.90
12111;DHT22;6119;52.372;8.990;2023-08-08T00:40:23;14.00;99.90
12111;DHT22;6119;52.372;8.990;2023-08-08T00:43:10;13.90;99.90
12111;DHT22;6119;52.372;8.990;2023-08-08T00:45:57;13.90;99.90
12111;DHT22;6119;52.372;8.990;2023-08-08T00:48:44;14.10;99.90
12111;DHT22;6119;52.372;8.990;2023-08-08T00:51:32;14.10;99.90
12111;DHT22;6119;52.372;8.990;2023-08-08T00:54:19;14.10;99.90
12111;DHT22;6119;52.372;8.990;2023-08-08T00:57:06;14.00;99.90
12111;DHT22;6119;52.372;8.990;2023-08-08T00:59:53;14.10;99.90
12111;DHT22;6119;52.372;8.990;2023-08-08T01:02:40;14.10;99.90
12111;DHT22;6119;52.372;8.990;2023-08-08T01:05:30;14.00;99.90
12111;DHT22;6119;52.372;8.990;2023-08-08T01:08:24;14.00;99.90
12111;DHT22;6119;52.372;8.990;2023-08-08T01:11:15;14.00;99.90
12111;DHT22;6119;52.372;8.990;2023-08-08T01:14:02;14.00;99.90
12111;DHT22;6119;52.372;8.990;2023-08-08T01:16:52;14.00;99.90
12111;DHT22;6119;52.372;8.990;2023-08-08T01:19:43;14.10;99.90
12111;DHT22;6119;52.372;8.990;2023-08-08T01:22:36;14.00;99.90
12111;DHT22;6119;52.372;8.990;2023-08-08T01:25:25;14.10;99.90
12111;DHT22;6119;52.372;8.990;2023-08-08T01:28:12;14.00;99.90
12111;DHT22;6119;52.372;8.990;2023-08-08T01:30:58;14.10;99.90
12111;DHT22;6119;52.372;8.990;2023-08-08T01:33:45;14.10;99.90
12111;DHT22;6119;52.372;8.990;2023-08-08T01:36:38;14.10;99.90
12111;DHT22;6119;52.372;8.990;2023-08-08T01:39:27;14.10;99.90
12111;DHT22;6119;52.372;8.990;2023-08-08T01:42:18;14.10;99.90
12111;DHT22;6119;52.372;8.990;2023-08-08T01:45:06;14.10;99.90
12111;DHT22;6119;52.372;8.990;2023-08-08T01:47:53;14.10;99.90
12111;DHT22;6119;52.372;8.990;2023-08-08T01:50:40;14.10;99.90
12111;DHT22;6119;52.372;8.990;2023-08-08T01:53:27;14.10;99.90
12111;DHT22;6119;52.372;8.990;2023-08-08T01:56:14;14.10;99.90
12111;DHT22;6119;52.372;8.990;2023-08-08T01:59:02;14.10;99.90
12111;DHT22;6119;52.372;8.990;2023-08-08T02:01:49;14.10;99.90
12111;DHT22;6119;52.372;8.990;2023-08-08T02:04:36;14.10;99.90
12111;DHT22;6119;52.372;8.990;2023-08-08T02:07:22;14.20;99.90
12111;DHT22;6119;52.372;8.990;2023-08-08T02:10:09;14.20;99.90
12111;DHT22;6119;52.372;8.990;2023-08-08T02:12:56;14.20;99.90
12111;DHT22;6119;52.372;8.990;2023-08-08T02:15:44;14.30;99.90
12111;DHT22;6119;52.372;8.990;2023-08-08T02:18:31;14.30;99.90
12111;DHT22;6119;52.372;8.990;2023-08-08T02:21:17;14.30;99.90
12111;DHT22;6119;52.372;8.990;2023-08-08T02:24:04;14.20;99.90
12111;DHT22;6119;52.372;8.990;2023-08-08T02:26:51;14.30;99.90
12111;DHT22;6119;52.372;8.990;2023-08-08T02:29:37;14.30;99.90
12111;DHT22;6119;52.372;8.990;2023-08-08T02:32:25;14.30;99.90
12111;DHT22;6119;52.372;8.990;2023-08-08T02:35:12;14.40;99.90
12111;DHT22;6119;52.372;8.990;2023-08-08T02:37:59;14.30;99.90
12111;DHT22;6119;52.372;8.990;2023-08-08T02:40:45;14.30;99.90
12111;DHT22;6119;52.372;8.990;2023-08-08T02:43:32;14.30;99.90
12111;DHT22;6119;52.372;8.990;2023-08-08T02:46:19;14.30;99.90
12111;DHT22;6119;52.372;8.990;2023-08-08T02:49:07;14.40;99.90
12111;DHT22;6119;52.372;8.990;2023-08-08T02:51:54;14.40;99.90
12111;DHT22;6119;52.372;8.990;2023-08-08T02:54:42;14.40;99.90
12111;DHT22;6119;52.372;8.990;2023-08-08T02:57:29;14.40;99.90
12111;DHT22;6119;52.372;8.990;2023-08-08T03:00:15;14.40;99.90
12111;DHT22;6119;52.372;8.990;2023-08-08T03:03:02;14.40;99.90
12111;DHT22;6119;52.372;8.990;2023-08-08T03:05:50;14.40;99.90
12111;DHT22;6119;52.372;8.990;2023-08-08T03:08:37;14.50;99.90
12111;DHT22;6119;52.372;8.990;2023-08-08T03:11:24;14.50;99.90
12111;DHT22;6119;52.372;8.990;2023-08-08T03:14:11;14.50;99.90
12111;DHT22;6119;52.372;8.990;2023-08-08T03:16:57;14.50;99.90
12111;DHT22;6119;52.372;8.990;2023-08-08T03:19:46;14.50;99.90
12111;DHT22;6119;52.372;8.990;2023-08-08T03:22:34;14.60;99.90
12111;DHT22;6119;52.372;8.990;2023-08-08T03:25:21;14.50;99.90
12111;DHT22;6119;52.372;8.990;2023-08-08T03:28:07;14.50;99.90
12111;DHT22;6119;52.372;8.990;2023-08-08T03:30:54;14.50;99.90
12111;DHT22;6119;52.372;8.990;2023-08-08T03:33:40;14.50;99.90
12111;DHT22;6119;52.372;8.990;2023-08-08T03:36:27;14.50;99.90
12111;DHT22;6119;52.372;8.990;2023-08-08T03:39:15;14.50;99.90
12111;DHT22;6119;52.372;8.990;2023-08-08T03:42:03;14.60;99.90
12111;DHT22;6119;52.372;8.990;2023-08-08T03:44:49;14.50;99.90
12111;DHT22;6119;52.372;8.990;2023-08-08T03:47:36;14.60;99.90
12111;DHT22;6119;52.372;8.990;2023-08-08T03:50:23;14.60;99.90
12111;DHT22;6119;52.372;8.990;2023-08-08T03:53:10;14.60;99.90
12111;DHT22;6119;52.372;8.990;2023-08-08T03:55:59;14.50;99.90
12111;DHT22;6119;52.372;8.990;2023-08-08T03:58:46;14.50;99.90
12111;DHT22;6119;52.372;8.990;2023-08-08T04:01:32;14.50;99.90
12111;DHT22;6119;52.372;8.990;2023-08-08T04:04:19;14.50;99.90
12111;DHT22;6119;52.372;8.990;2023-08-08T04:07:06;14.60;99.90
12111;DHT22;6119;52.372;8.990;2023-08-08T04:09:52;14.50;99.90
12111;DHT22;6119;52.372;8.990;2023-08-08T04:12:40;14.50;99.90
12111;DHT22;6119;52.372;8.990;2023-08-08T04:15:27;14.60;99.90
12111;DHT22;6119;52.372;8.990;2023-08-08T04:18:14;14.50;99.90
12111;DHT22;6119;52.372;8.990;2023-08-08T04:21:00;14.50;99.90
12111;DHT22;6119;52.372;8.990;2023-08-08T04:23:47;14.60;99.90
12111;DHT22;6119;52.372;8.990;2023-08-08T04:26:34;14.50;99.90
12111;DHT22;6119;52.372;8.990;2023-08-08T04:29:22;14.50;99.90
12111;DHT22;6119;52.372;8.990;2023-08-08T04:32:09;14.60;99.90
12111;DHT22;6119;52.372;8.990;2023-08-08T04:34:56;14.60;99.90
12111;DHT22;6119;52.372;8.990;2023-08-08T04:37:42;14.60;99.90
12111;DHT22;6119;52.372;8.990;2023-08-08T04:40:29;14.60;99.90
12111;DHT22;6119;52.372;8.990;2023-08-08T04:43:16;14.60;99.90
12111;DHT22;6119;52.372;8.990;2023-08-08T04:46:03;14.50;99.90
12111;DHT22;6119;52.372;8.990;2023-08-08T04:48:50;14.60;99.90
12111;DHT22;6119;52.372;8.990;2023-08-08T04:51:37;14.60;99.90
12111;DHT22;6119;52.372;8.990;2023-08-08T04:54:24;14.70;99.90
12111;DHT22;6119;52.372;8.990;2023-08-08T04:57:10;14.70;99.90
12111;DHT22;6119;52.372;8.990;2023-08-08T04:59:57;14.60;99.90
12111;DHT22;6119;52.372;8.990;2023-08-08T05:02:48;14.60;99.90
12111;DHT22;6119;52.372;8.990;2023-08-08T05:05:35;14.70;99.90
12111;DHT22;6119;52.372;8.990;2023-08-08T05:08:21;14.70;99.90
12111;DHT22;6119;52.372;8.990;2023-08-08T05:11:08;14.70;99.90
12111;DHT22;6119;52.372;8.990;2023-08-08T05:13:54;14.70;99.90
12111;DHT22;6119;52.372;8.990;2023-08-08T05:16:41;14.70;99.90
12111;DHT22;6119;52.372;8.990;2023-08-08T05:19:29;14.70;99.90
12111;DHT22;6119;52.372;8.990;2023-08-08T05:22:16;14.70;99.90
12111;DHT22;6119;52.372;8.990;2023-08-08T05:25:02;14.80;99.90
12111;DHT22;6119;52.372;8.990;2023-08-08T05:27:49;14.80;99.90
12111;DHT22;6119;52.372;8.990;2023-08-08T05:30:36;14.80;99.90
12111;DHT22;6119;52.372;8.990;2023-08-08T05:33:22;14.80;99.90
12111;DHT22;6119;52.372;8.990;2023-08-08T05:36:10;14.90;99.90
12111;DHT22;6119;52.372;8.990;2023-08-08T05:38:57;14.80;99.90
12111;DHT22;6119;52.372;8.990;2023-08-08T05:41:44;14.80;99.90
12111;DHT22;6119;52.372;8.990;2023-08-08T05:44:30;14.70;99.90
12111;DHT22;6119;52.372;8.990;2023-08-08T05:47:17;14.80;99.90
12111;DHT22;6119;52.372;8.990;2023-08-08T05:50:04;14.80;99.90
12111;DHT22;6119;52.372;8.990;2023-08-08T05:52:53;14.80;99.90
12111;DHT22;6119;52.372;8.990;2023-08-08T05:55:40;14.80;99.90
12111;DHT22;6119;52.372;8.990;2023-08-08T05:58:27;14.90;99.90
12111;DHT22;6119;52.372;8.990;2023-08-08T06:01:14;15.00;99.90
12111;DHT22;6119;52.372;8.990;2023-08-08T06:04:01;15.00;99.90
12111;DHT22;6119;52.372;8.990;2023-08-08T06:06:49;15.10;99.90
12111;DHT22;6119;52.372;8.990;2023-08-08T06:09:37;15.20;99.90
12111;DHT22;6119;52.372;8.990;2023-08-08T06:12:24;15.20;99.90
12111;DHT22;6119;52.372;8.990;2023-08-08T06:15:11;15.20;99.90
12111;DHT22;6119;52.372;8.990;2023-08-08T06:17:58;15.40;99.90
12111;DHT22;6119;52.372;8.990;2023-08-08T06:20:44;15.40;99.90
12111;DHT22;6119;52.372;8.990;2023-08-08T06:23:31;15.50;99.90
12111;DHT22;6119;52.372;8.990;2023-08-08T06:26:19;15.50;99.90
12111;DHT22;6119;52.372;8.990;2023-08-08T06:29:06;15.60;99.90
12111;DHT22;6119;52.372;8.990;2023-08-08T06:31:53;15.60;99.90
12111;DHT22;6119;52.372;8.990;2023-08-08T06:34:39;15.70;99.90
12111;DHT22;6119;52.372;8.990;2023-08-08T06:37:26;15.70;99.90
12111;DHT22;6119;52.372;8.990;2023-08-08T06:40:13;15.80;99.90
12111;DHT22;6119;52.372;8.990;2023-08-08T06:43:02;15.80;99.90
12111;DHT22;6119;52.372;8.990;2023-08-08T06:45:49;15.90;99.90
12111;DHT22;6119;52.372;8.990;2023-08-08T06:48:35;15.90;99.90
12111;DHT22;6119;52.372;8.990;2023-08-08T06:51:23;16.00;99.90
12111;DHT22;6119;52.372;8.990;2023-08-08T06:54:10;16.00;99.90
12111;DHT22;6119;52.372;8.990;2023-08-08T06:56:57;16.10;99.90
12111;DHT22;6119;52.372;8.990;2023-08-08T06:59:47;16.20;99.90
12111;DHT22;6119;52.372;8.990;2023-08-08T07:02:36;16.20;99.90
12111;DHT22;6119;52.372;8.990;2023-08-08T07:05:23;16.20;99.90
12111;DHT22;6119;52.372;8.990;2023-08-08T07:08:11;16.30;99.90
12111;DHT22;6119;52.372;8.990;2023-08-08T07:10:58;16.40;99.90
12111;DHT22;6119;52.372;8.990;2023-08-08T07:13:45;16.30;99.90
12111;DHT22;6119;52.372;8.990;2023-08-08T07:16:33;16.40;99.90
12111;DHT22;6119;52.372;8.990;2023-08-08T07:19:20;16.50;99.90
12111;DHT22;6119;52.372;8.990;2023-08-08T07:22:07;16.50;99.90
12111;DHT22;6119;52.372;8.990;2023-08-08T07:24:54;16.60;99.90
12111;DHT22;6119;52.372;8.990;2023-08-08T07:27:40;16.60;99.90
12111;DHT22;6119;52.372;8.990;2023-08-08T07:30:27;16.70;99.90
12111;DHT22;6119;52.372;8.990;2023-08-08T07:33:15;16.80;99.90
12111;DHT22;6119;52.372;8.990;2023-08-08T07:36:02;17.00;99.90
12111;DHT22;6119;52.372;8.990;2023-08-08T07:38:49;17.00;99.90
12111;DHT22;6119;52.372;8.990;2023-08-08T07:41:36;16.90;99.90
12111;DHT22;6119;52.372;8.990;2023-08-08T07:44:22;17.00;99.90
12111;DHT22;6119;52.372;8.990;2023-08-08T07:47:09;17.10;99.90
12111;DHT22;6119;52.372;8.990;2023-08-08T07:49:59;17.20;99.90
12111;DHT22;6119;52.372;8.990;2023-08-08T07:52:46;17.20;99.90
12111;DHT22;6119;52.372;8.990;2023-08-08T07:55:33;17.20;99.90
12111;DHT22;6119;52.372;8.990;2023-08-08T07:58:19;17.10;99.90
12111;DHT22;6119;52.372;8.990;2023-08-08T08:01:08;16.90;99.90
12111;DHT22;6119;52.372;8.990;2023-08-08T08:03:57;16.90;99.90
12111;DHT22;6119;52.372;8.990;2023-08-08T08:06:45;16.90;99.90
12111;DHT22;6119;52.372;8.990;2023-08-08T08:09:31;17.10;99.90
12111;DHT22;6119;52.372;8.990;2023-08-08T08:12:18;17.20;99.90
12111;DHT22;6119;52.372;8.990;2023-08-08T08:15:06;17.10;99.90
12111;DHT22;6119;52.372;8.990;2023-08-08T08:17:53;17.00;99.90
12111;DHT22;6119;52.372;8.990;2023-08-08T08:20:40;17.20;99.90
12111;DHT22;6119;52.372;8.990;2023-08-08T08:23:28;17.20;99.90
12111;DHT22;6119;52.372;8.990;2023-08-08T08:26:17;17.30;99.90
12111;DHT22;6119;52.372;8.990;2023-08-08T08:29:04;17.30;99.90
12111;DHT22;6119;52.372;8.990;2023-08-08T08:31:50;17.30;99.90
12111;DHT22;6119;52.372;8.990;2023-08-08T08:34:37;17.50;99.90
12111;DHT22;6119;52.372;8.990;2023-08-08T08:37:23;17.50;99.90
12111;DHT22;6119;52.372;8.990;2023-08-08T08:40:11;17.30;99.90
12111;DHT22;6119;52.372;8.990;2023-08-08T08:42:58;17.30;99.90
12111;DHT22;6119;52.372;8.990;2023-08-08T08:45:50;17.20;99.90
12111;DHT22;6119;52.372;8.990;2023-08-08T08:48:37;17.40;99.90
12111;DHT22;6119;52.372;8.990;2023-08-08T08:51:24;17.70;99.90
12111;DHT22;6119;52.372;8.990;2023-08-08T08:54:11;17.80;99.90
12111;DHT22;6119;52.372;8.990;2023-08-08T08:57:03;18.00;99.90
12111;DHT22;6119;52.372;8.990;2023-08-08T08:59:50;18.00;99.90
12111;DHT22;6119;52.372;8.990;2023-08-08T09:02:37;18.20;99.90
12111;DHT22;6119;52.372;8.990;2023-08-08T09:05:25;18.20;99.90
12111;DHT22;6119;52.372;8.990;2023-08-08T09:08:11;18.10;99.90
12111;DHT22;6119;52.372;8.990;2023-08-08T09:10:59;18.10;99.90
12111;DHT22;6119;52.372;8.990;2023-08-08T09:13:47;17.80;99.90
12111;DHT22;6119;52.372;8.990;2023-08-08T09:16:34;17.80;99.90
12111;DHT22;6119;52.372;8.990;2023-08-08T09:19:21;17.70;99.90
12111;DHT22;6119;52.372;8.990;2023-08-08T09:22:08;17.60;99.90
12111;DHT22;6119;52.372;8.990;2023-08-08T09:24:55;17.60;99.90
12111;DHT22;6119;52.372;8.990;2023-08-08T09:27:42;17.80;99.90
12111;DHT22;6119;52.372;8.990;2023-08-08T09:30:30;17.90;99.90
12111;DHT22;6119;52.372;8.990;2023-08-08T09:33:18;18.10;99.90
12111;DHT22;6119;52.372;8.990;2023-08-08T09:36:06;18.30;99.90
12111;DHT22;6119;52.372;8.990;2023-08-08T09:38:53;18.40;99.90
12111;DHT22;6119;52.372;8.990;2023-08-08T09:41:40;18.20;99.90
12111;DHT22;6119;52.372;8.990;2023-08-08T09:44:26;17.90;99.90
12111;DHT22;6119;52.372;8.990;2023-08-08T09:47:16;18.10;99.90
12111;DHT22;6119;52.372;8.990;2023-08-08T09:50:05;18.50;99.90
12111;DHT22;6119;52.372;8.990;2023-08-08T09:52:53;18.60;99.90
12111;DHT22;6119;52.372;8.990;2023-08-08T09:55:40;18.40;99.90
12111;DHT22;6119;52.372;8.990;2023-08-08T09:58:27;18.30;99.90
12111;DHT22;6119;52.372;8.990;2023-08-08T10:01:14;18.10;99.90
12111;DHT22;6119;52.372;8.990;2023-08-08T10:04:03;18.10;99.90
12111;DHT22;6119;52.372;8.990;2023-08-08T10:06:50;18.50;99.90
12111;DHT22;6119;52.372;8.990;2023-08-08T10:09:36;18.40;99.90
12111;DHT22;6119;52.372;8.990;2023-08-08T10:12:25;18.70;99.90
12111;DHT22;6119;52.372;8.990;2023-08-08T10:15:12;18.80;99.90
12111;DHT22;6119;52.372;8.990;2023-08-08T10:18:00;18.60;99.90
12111;DHT22;6119;52.372;8.990;2023-08-08T10:20:48;18.40;99.90
12111;DHT22;6119;52.372;8.990;2023-08-08T10:23:36;18.50;99.90
12111;DHT22;6119;52.372;8.990;2023-08-08T10:26:23;18.80;99.90
12111;DHT22;6119;52.372;8.990;2023-08-08T10:29:18;19.30;99.90
12111;DHT22;6119;52.372;8.990;2023-08-08T10:32:06;19.00;99.90
12111;DHT22;6119;52.372;8.990;2023-08-08T10:34:55;19.10;99.90
12111;DHT22;6119;52.372;8.990;2023-08-08T10:37:54;19.50;99.90
12111;DHT22;6119;52.372;8.990;2023-08-08T10:40:43;19.70;99.90
12111;DHT22;6119;52.372;8.990;2023-08-08T10:43:31;19.80;99.90
12111;DHT22;6119;52.372;8.990;2023-08-08T10:46:25;19.60;99.90
12111;DHT22;6119;52.372;8.990;2023-08-08T10:49:12;19.40;99.90
12111;DHT22;6119;52.372;8.990;2023-08-08T10:52:03;19.40;99.90
12111;DHT22;6119;52.372;8.990;2023-08-08T10:54:53;19.30;99.90
12111;DHT22;6119;52.372;8.990;2023-08-08T10:57:40;19.30;99.90
12111;DHT22;6119;52.372;8.990;2023-08-08T11:00:29;19.20;99.90
12111;DHT22;6119;52.372;8.990;2023-08-08T11:03:17;19.50;99.90
12111;DHT22;6119;52.372;8.990;2023-08-08T11:06:04;19.60;99.90
12111;DHT22;6119;52.372;8.990;2023-08-08T11:08:51;19.70;99.90
12111;DHT22;6119;52.372;8.990;2023-08-08T11:11:42;19.70;99.90
12111;DHT22;6119;52.372;8.990;2023-08-08T11:14:29;19.90;99.90
12111;DHT22;6119;52.372;8.990;2023-08-08T11:17:15;19.50;99.90
12111;DHT22;6119;52.372;8.990;2023-08-08T11:20:03;19.30;99.90
12111;DHT22;6119;52.372;8.990;2023-08-08T11:22:54;19.10;99.90
12111;DHT22;6119;52.372;8.990;2023-08-08T11:25:42;19.50;99.90
12111;DHT22;6119;52.372;8.990;2023-08-08T11:28:30;19.70;99.90
12111;DHT22;6119;52.372;8.990;2023-08-08T11:31:18;19.60;99.90
12111;DHT22;6119;52.372;8.990;2023-08-08T11:34:06;19.40;99.90
12111;DHT22;6119;52.372;8.990;2023-08-08T11:36:55;19.30;99.90
12111;DHT22;6119;52.372;8.990;2023-08-08T11:39:43;19.40;99.90
12111;DHT22;6119;52.372;8.990;2023-08-08T11:42:31;19.30;99.90
12111;DHT22;6119;52.372;8.990;2023-08-08T11:45:22;19.60;99.90
12111;DHT22;6119;52.372;8.990;2023-08-08T11:48:10;19.40;99.90
12111;DHT22;6119;52.372;8.990;2023-08-08T11:50:56;19.20;99.90
12111;DHT22;6119;52.372;8.990;2023-08-08T11:53:50;19.10;99.90
12111;DHT22;6119;52.372;8.990;2023-08-08T11:56:37;19.00;99.90
12111;DHT22;6119;52.372;8.990;2023-08-08T11:59:24;18.80;99.90
12111;DHT22;6119;52.372;8.990;2023-08-08T12:02:12;18.90;99.90
12111;DHT22;6119;52.372;8.990;2023-08-08T12:05:04;18.90;99.90
12111;DHT22;6119;52.372;8.990;2023-08-08T12:07:51;18.90;99.90
12111;DHT22;6119;52.372;8.990;2023-08-08T12:10:39;19.10;99.90
12111;DHT22;6119;52.372;8.990;2023-08-08T12:13:26;19.50;99.90
12111;DHT22;6119;52.372;8.990;2023-08-08T12:16:14;19.60;99.90
12111;DHT22;6119;52.372;8.990;2023-08-08T12:19:07;19.40;99.90
12111;DHT22;6119;52.372;8.990;2023-08-08T12:21:56;19.20;99.90
12111;DHT22;6119;52.372;8.990;2023-08-08T12:24:43;19.10;99.90
12111;DHT22;6119;52.372;8.990;2023-08-08T12:27:29;18.40;99.90
12111;DHT22;6119;52.372;8.990;2023-08-08T12:30:17;18.00;99.90
12111;DHT22;6119;52.372;8.990;2023-08-08T12:33:04;17.70;99.90
12111;DHT22;6119;52.372;8.990;2023-08-08T12:35:52;17.50;99.90
12111;DHT22;6119;52.372;8.990;2023-08-08T12:38:39;17.50;99.90
12111;DHT22;6119;52.372;8.990;2023-08-08T12:41:26;17.70;99.90
12111;DHT22;6119;52.372;8.990;2023-08-08T12:44:15;17.70;99.90
12111;DHT22;6119;52.372;8.990;2023-08-08T12:47:01;17.90;99.90
12111;DHT22;6119;52.372;8.990;2023-08-08T12:49:48;18.00;99.90
12111;DHT22;6119;52.372;8.990;2023-08-08T12:52:36;18.20;99.90
12111;DHT22;6119;52.372;8.990;2023-08-08T12:55:24;18.90;99.90
12111;DHT22;6119;52.372;8.990;2023-08-08T12:58:11;19.10;99.90
12111;DHT22;6119;52.372;8.990;2023-08-08T13:00:58;19.30;99.90
12111;DHT22;6119;52.372;8.990;2023-08-08T13:03:45;19.50;99.90
12111;DHT22;6119;52.372;8.990;2023-08-08T13:06:47;19.40;99.90
12111;DHT22;6119;52.372;8.990;2023-08-08T13:09:36;19.30;99.90
12111;DHT22;6119;52.372;8.990;2023-08-08T13:12:23;19.10;99.90
12111;DHT22;6119;52.372;8.990;2023-08-08T13:15:10;19.00;99.90
12111;DHT22;6119;52.372;8.990;2023-08-08T13:17:57;19.00;99.90
12111;DHT22;6119;52.372;8.990;2023-08-08T13:20:44;18.40;99.90
12111;DHT22;6119;52.372;8.990;2023-08-08T13:23:31;17.80;99.90
12111;DHT22;6119;52.372;8.990;2023-08-08T13:26:19;17.50;99.90
12111;DHT22;6119;52.372;8.990;2023-08-08T13:29:06;17.60;99.90
12111;DHT22;6119;52.372;8.990;2023-08-08T13:31:53;17.80;99.90
12111;DHT22;6119;52.372;8.990;2023-08-08T13:34:40;17.90;99.90
12111;DHT22;6119;52.372;8.990;2023-08-08T13:37:26;18.00;99.90
12111;DHT22;6119;52.372;8.990;2023-08-08T13:40:13;18.20;99.90
12111;DHT22;6119;52.372;8.990;2023-08-08T13:43:01;18.30;99.90
12111;DHT22;6119;52.372;8.990;2023-08-08T13:45:48;18.50;99.90
12111;DHT22;6119;52.372;8.990;2023-08-08T13:48:35;18.70;99.90
12111;DHT22;6119;52.372;8.990;2023-08-08T13:51:21;19.00;99.90
12111;DHT22;6119;52.372;8.990;2023-08-08T13:54:09;19.40;99.90
12111;DHT22;6119;52.372;8.990;2023-08-08T13:56:56;19.40;99.90
12111;DHT22;6119;52.372;8.990;2023-08-08T13:59:44;18.90;99.90
12111;DHT22;6119;52.372;8.990;2023-08-08T14:02:30;18.90;99.90
12111;DHT22;6119;52.372;8.990;2023-08-08T14:05:17;18.70;99.90
12111;DHT22;6119;52.372;8.990;2023-08-08T14:08:04;18.60;99.90
12111;DHT22;6119;52.372;8.990;2023-08-08T14:10:51;18.40;99.90
12111;DHT22;6119;52.372;8.990;2023-08-08T14:13:38;18.30;99.90
12111;DHT22;6119;52.372;8.990;2023-08-08T14:16:27;18.20;99.90
12111;DHT22;6119;52.372;8.990;2023-08-08T14:19:14;18.00;99.90
12111;DHT22;6119;52.372;8.990;2023-08-08T14:22:02;17.90;99.90
12111;DHT22;6119;52.372;8.990;2023-08-08T14:24:51;17.30;99.90
12111;DHT22;6119;52.372;8.990;2023-08-08T14:27:37;16.90;99.90
12111;DHT22;6119;52.372;8.990;2023-08-08T14:30:24;17.00;99.90
12111;DHT22;6119;52.372;8.990;2023-08-08T14:33:15;16.90;99.90
12111;DHT22;6119;52.372;8.990;2023-08-08T14:36:03;16.90;99.90
12111;DHT22;6119;52.372;8.990;2023-08-08T14:38:50;16.80;99.90
12111;DHT22;6119;52.372;8.990;2023-08-08T14:41:37;16.80;99.90
12111;DHT22;6119;52.372;8.990;2023-08-08T14:44:24;16.90;99.90
12111;DHT22;6119;52.372;8.990;2023-08-08T14:47:12;17.00;99.90
12111;DHT22;6119;52.372;8.990;2023-08-08T14:50:00;17.10;99.90
12111;DHT22;6119;52.372;8.990;2023-08-08T14:52:47;17.30;99.90
12111;DHT22;6119;52.372;8.990;2023-08-08T14:55:34;17.30;99.90
12111;DHT22;6119;52.372;8.990;2023-08-08T14:58:21;17.60;99.90
12111;DHT22;6119;52.372;8.990;2023-08-08T15:01:09;17.70;99.90
12111;DHT22;6119;52.372;8.990;2023-08-08T15:03:57;17.60;99.90
12111;DHT22;6119;52.372;8.990;2023-08-08T15:06:46;17.50;99.90
12111;DHT22;6119;52.372;8.990;2023-08-08T15:09:33;17.40;99.90
12111;DHT22;6119;52.372;8.990;2023-08-08T15:12:20;17.40;99.90
12111;DHT22;6119;52.372;8.990;2023-08-08T15:15:08;17.20;99.90
12111;DHT22;6119;52.372;8.990;2023-08-08T15:17:55;17.30;99.90
12111;DHT22;6119;52.372;8.990;2023-08-08T15:20:41;17.30;99.90
12111;DHT22;6119;52.372;8.990;2023-08-08T15:23:29;17.40;99.90
12111;DHT22;6119;52.372;8.990;2023-08-08T15:26:17;18.10;99.90
12111;DHT22;6119;52.372;8.990;2023-08-08T15:29:05;18.30;99.90
12111;DHT22;6119;52.372;8.990;2023-08-08T15:31:52;18.50;99.90
12111;DHT22;6119;52.372;8.990;2023-08-08T15:34:38;18.60;99.90
12111;DHT22;6119;52.372;8.990;2023-08-08T15:37:25;18.90;99.90
12111;DHT22;6119;52.372;8.990;2023-08-08T15:40:13;19.20;99.90
12111;DHT22;6119;52.372;8.990;2023-08-08T15:43:00;19.40;99.90
12111;DHT22;6119;52.372;8.990;2023-08-08T15:45:49;19.60;99.90
12111;DHT22;6119;52.372;8.990;2023-08-08T15:48:36;19.60;99.90
12111;DHT22;6119;52.372;8.990;2023-08-08T15:51:22;19.70;99.90
12111;DHT22;6119;52.372;8.990;2023-08-08T15:54:09;19.70;99.90
12111;DHT22;6119;52.372;8.990;2023-08-08T15:56:57;19.90;99.90
12111;DHT22;6119;52.372;8.990;2023-08-08T15:59:47;19.90;99.90
12111;DHT22;6119;52.372;8.990;2023-08-08T16:02:34;20.00;99.90
12111;DHT22;6119;52.372;8.990;2023-08-08T16:05:21;19.70;99.90
12111;DHT22;6119;52.372;8.990;2023-08-08T16:08:08;19.50;99.90
12111;DHT22;6119;52.372;8.990;2023-08-08T16:10:55;19.10;99.90
12111;DHT22;6119;52.372;8.990;2023-08-08T16:13:43;19.10;99.90
12111;DHT22;6119;52.372;8.990;2023-08-08T16:16:30;18.80;99.90
12111;DHT22;6119;52.372;8.990;2023-08-08T16:19:18;18.80;99.90
12111;DHT22;6119;52.372;8.990;2023-08-08T16:22:05;18.70;99.90
12111;DHT22;6119;52.372;8.990;2023-08-08T16:24:51;18.60;99.90
12111;DHT22;6119;52.372;8.990;2023-08-08T16:27:39;18.40;99.90
12111;DHT22;6119;52.372;8.990;2023-08-08T16:30:27;17.80;99.90
12111;DHT22;6119;52.372;8.990;2023-08-08T16:33:14;17.80;99.90
12111;DHT22;6119;52.372;8.990;2023-08-08T16:36:02;17.70;99.90
12111;DHT22;6119;52.372;8.990;2023-08-08T16:38:48;17.70;99.90
12111;DHT22;6119;52.372;8.990;2023-08-08T16:41:37;17.80;99.90
12111;DHT22;6119;52.372;8.990;2023-08-08T16:44:24;18.00;99.90
12111;DHT22;6119;52.372;8.990;2023-08-08T16:47:13;17.80;99.90
12111;DHT22;6119;52.372;8.990;2023-08-08T16:49:59;17.90;99.90
12111;DHT22;6119;52.372;8.990;2023-08-08T16:52:46;17.80;99.90
12111;DHT22;6119;52.372;8.990;2023-08-08T16:55:33;17.50;99.90
12111;DHT22;6119;52.372;8.990;2023-08-08T16:58:19;17.70;99.90
12111;DHT22;6119;52.372;8.990;2023-08-08T17:01:06;17.80;99.90
12111;DHT22;6119;52.372;8.990;2023-08-08T17:03:55;17.60;99.90
12111;DHT22;6119;52.372;8.990;2023-08-08T17:06:41;17.70;99.90
12111;DHT22;6119;52.372;8.990;2023-08-08T17:09:29;17.80;99.90
12111;DHT22;6119;52.372;8.990;2023-08-08T17:12:15;17.90;99.90
12111;DHT22;6119;52.372;8.990;2023-08-08T17:15:02;17.60;99.90
12111;DHT22;6119;52.372;8.990;2023-08-08T17:17:50;17.80;99.90
12111;DHT22;6119;52.372;8.990;2023-08-08T17:20:37;17.90;99.90
12111;DHT22;6119;52.372;8.990;2023-08-08T17:23:24;17.80;99.90
12111;DHT22;6119;52.372;8.990;2023-08-08T17:26:11;17.90;99.90
12111;DHT22;6119;52.372;8.990;2023-08-08T17:28:58;17.90;99.90
12111;DHT22;6119;52.372;8.990;2023-08-08T17:31:44;17.90;99.90
12111;DHT22;6119;52.372;8.990;2023-08-08T17:34:31;17.80;99.90
12111;DHT22;6119;52.372;8.990;2023-08-08T17:37:19;17.70;99.90
12111;DHT22;6119;52.372;8.990;2023-08-08T17:40:07;17.60;99.90
12111;DHT22;6119;52.372;8.990;2023-08-08T17:42:55;17.50;99.90
12111;DHT22;6119;52.372;8.990;2023-08-08T17:45:41;17.40;99.90
12111;DHT22;6119;52.372;8.990;2023-08-08T17:48:28;17.40;99.90
12111;DHT22;6119;52.372;8.990;2023-08-08T17:51:15;17.30;99.90
12111;DHT22;6119;52.372;8.990;2023-08-08T17:54:03;17.10;99.90